Time;durP1;ratioP1;P1;durP2;ratioP2;P2;SDS_P1;SDS_P2;PMS_P1;PMS_P2;Temp;Humidity;BMP_temperature;BMP_pressure;BME280_temperature;BME280_humidity;BME280_pressure;Samples;Min_cycle;Max_cycle;Signal;HPM_P1;HPM_P2
2023/07/22 00:01:54;;;;;;;12.65;8.18;;;12.80;99.90;;;;;;8315616;28;20018;-81
2023/07/22 00:06:09;;;;;;;8.27;5.90;;;12.70;99.90;;;;;;8329617;28;20025;-81
2023/07/22 00:10:10;;;;;;;10.52;7.30;;;12.50;99.90;;;;;;8329957;28;20492;-80
2023/07/22 00:14:10;;;;;;;11.48;6.80;;;12.60;99.90;;;;;;8313255;28;20033;-82
2023/07/22 00:18:11;;;;;;;8.48;6.22;;;12.50;99.90;;;;;;8313159;28;20022;-82
2023/07/22 00:22:11;;;;;;;10.13;5.30;;;12.30;99.90;;;;;;8306170;28;20049;-81
2023/07/22 00:26:12;;;;;;;9.98;5.60;;;12.10;99.90;;;;;;8306621;28;20037;-81
2023/07/22 00:30:13;;;;;;;11.07;6.35;;;12.00;99.90;;;;;;8306609;28;20500;-82
2023/07/22 00:34:13;;;;;;;11.98;7.57;;;11.90;99.90;;;;;;8312059;28;20026;-82
2023/07/22 00:38:14;;;;;;;9.45;6.20;;;11.90;99.90;;;;;;8314745;28;20483;-81
2023/07/22 00:42:14;;;;;;;14.65;7.10;;;11.90;99.90;;;;;;8297512;28;20034;-81
2023/07/22 00:46:15;;;;;;;9.05;4.97;;;11.80;99.90;;;;;;8297102;28;20248;-81
2023/07/22 00:50:15;;;;;;;9.32;5.30;;;11.80;99.90;;;;;;8297099;28;20034;-82
2023/07/22 00:54:16;;;;;;;8.70;5.82;;;11.60;99.90;;;;;;8295274;28;20032;-80
2023/07/22 00:58:17;;;;;;;11.02;5.25;;;11.50;99.90;;;;;;8295388;28;20022;-81
2023/07/22 01:02:21;;;;;;;8.88;5.82;;;11.50;99.90;;;;;;8295147;28;20022;-80
2023/07/22 01:06:23;;;;;;;6.55;4.93;;;11.40;99.90;;;;;;8302248;28;20021;-80
2023/07/22 01:10:25;;;;;;;8.18;5.60;;;11.30;99.90;;;;;;8301977;28;20500;-81
2023/07/22 01:14:26;;;;;;;12.63;6.07;;;11.20;99.90;;;;;;8303072;28;20029;-81
2023/07/22 01:18:26;;;;;;;10.00;6.50;;;11.30;99.90;;;;;;8315848;28;20021;-81
2023/07/22 01:22:28;;;;;;;8.15;5.78;;;11.30;99.90;;;;;;8294849;28;20404;-81
2023/07/22 01:26:28;;;;;;;9.77;5.75;;;11.50;99.90;;;;;;8303212;28;20026;-80
2023/07/22 01:30:29;;;;;;;11.50;4.88;;;11.60;99.90;;;;;;8300956;28;20045;-80
2023/07/22 01:34:31;;;;;;;11.15;5.28;;;11.40;99.90;;;;;;8292086;28;20104;-80
2023/07/22 01:38:32;;;;;;;8.13;5.38;;;11.40;99.90;;;;;;8293767;28;20076;-80
2023/07/22 01:42:32;;;;;;;8.68;4.72;;;11.30;99.90;;;;;;8295662;28;20022;-77
2023/07/22 01:46:33;;;;;;;7.85;5.40;;;11.30;99.90;;;;;;8289414;28;20029;-76
2023/07/22 01:50:33;;;;;;;8.40;4.82;;;11.30;99.90;;;;;;8291829;28;20050;-77
2023/07/22 01:54:34;;;;;;;8.90;5.20;;;11.30;99.90;;;;;;8293142;28;20024;-79
2023/07/22 01:58:34;;;;;;;9.63;5.25;;;11.20;99.90;;;;;;8291986;28;20504;-78
2023/07/22 02:02:35;;;;;;;10.20;5.57;;;11.20;99.90;;;;;;8292428;28;20558;-78
2023/07/22 02:06:35;;;;;;;8.35;6.43;;;11.20;99.90;;;;;;8293688;28;20018;-77
2023/07/22 02:10:36;;;;;;;8.80;5.70;;;11.30;99.90;;;;;;8292280;28;20396;-79
2023/07/22 02:14:37;;;;;;;8.63;6.35;;;11.40;99.90;;;;;;8294029;28;20061;-79
2023/07/22 02:18:38;;;;;;;10.32;6.45;;;11.40;99.90;;;;;;8304709;28;20404;-79
2023/07/22 02:22:38;;;;;;;10.02;5.72;;;11.40;99.90;;;;;;8293363;28;20090;-79
2023/07/22 02:26:39;;;;;;;10.55;6.30;;;11.30;99.90;;;;;;8298563;28;20084;-78
2023/07/22 02:30:39;;;;;;;10.90;5.75;;;11.10;99.90;;;;;;8296870;28;21034;-77
2023/07/22 02:34:40;;;;;;;8.55;5.50;;;11.00;99.90;;;;;;8301316;28;20037;-77
2023/07/22 02:38:41;;;;;;;9.68;5.72;;;10.80;99.90;;;;;;8305816;28;20510;-77
2023/07/22 02:42:41;;;;;;;9.30;5.15;;;10.70;99.90;;;;;;8296531;28;20504;-79
2023/07/22 02:46:42;;;;;;;14.45;5.43;;;10.70;99.90;;;;;;8293503;28;20064;-78
2023/07/22 02:50:42;;;;;;;11.38;6.30;;;10.90;99.90;;;;;;8309314;28;20407;-79
2023/07/22 02:55:03;;;;;;;9.77;5.70;;;10.80;99.90;;;;;;8295708;28;20522;-78
2023/07/22 02:59:04;;;;;;;7.30;5.20;;;10.60;99.90;;;;;;8308937;28;20037;-78
2023/07/22 03:03:05;;;;;;;12.60;6.18;;;10.50;99.90;;;;;;8298248;28;20037;-78
2023/07/22 03:07:06;;;;;;;11.50;5.60;;;10.50;99.90;;;;;;8299076;28;20030;-78
2023/07/22 03:11:06;;;;;;;9.25;5.00;;;10.40;99.90;;;;;;8297736;28;20037;-77
2023/07/22 03:15:08;;;;;;;10.35;5.72;;;10.30;99.90;;;;;;8303718;28;20064;-78
2023/07/22 03:19:10;;;;;;;10.25;6.05;;;10.20;99.90;;;;;;8297788;28;20500;-75
2023/07/22 03:23:10;;;;;;;11.55;6.15;;;10.50;99.90;;;;;;8298319;28;20058;-77
2023/07/22 03:27:11;;;;;;;9.93;5.88;;;10.70;99.90;;;;;;8296824;28;20033;-77
2023/07/22 03:31:12;;;;;;;14.75;6.10;;;10.70;99.90;;;;;;8320859;28;20041;-76
2023/07/22 03:35:12;;;;;;;7.35;4.97;;;10.70;99.90;;;;;;8303135;28;20060;-77
2023/07/22 03:39:13;;;;;;;11.57;6.25;;;10.40;99.90;;;;;;8304723;28;20109;-77
2023/07/22 03:43:13;;;;;;;8.38;5.22;;;10.30;99.90;;;;;;8310576;28;20045;-78
2023/07/22 03:47:14;;;;;;;12.18;5.28;;;10.30;99.90;;;;;;8295890;28;20026;-78
2023/07/22 03:51:14;;;;;;;14.10;5.80;;;10.30;99.90;;;;;;8296089;28;20053;-78
2023/07/22 03:55:15;;;;;;;6.85;5.05;;;10.20;99.90;;;;;;8295578;28;20380;-78
2023/07/22 03:59:16;;;;;;;9.48;4.93;;;10.30;99.90;;;;;;8296299;28;20149;-78
2023/07/22 04:03:16;;;;;;;8.30;5.88;;;10.10;99.90;;;;;;8296347;28;20029;-78
2023/07/22 04:07:17;;;;;;;9.57;6.22;;;10.00;99.90;;;;;;8302593;28;20113;-78
2023/07/22 04:11:17;;;;;;;10.85;5.90;;;10.20;99.90;;;;;;8309741;28;20029;-77
2023/07/22 04:15:18;;;;;;;10.25;5.05;;;10.60;99.90;;;;;;8309485;28;20026;-76
2023/07/22 04:19:18;;;;;;;9.10;5.05;;;10.80;99.90;;;;;;8295893;28;20491;-79
2023/07/22 04:23:19;;;;;;;9.10;4.65;;;11.30;99.90;;;;;;8310174;28;20037;-78
2023/07/22 04:27:19;;;;;;;6.35;3.90;;;11.70;99.90;;;;;;8295544;28;20021;-78
2023/07/22 04:31:20;;;;;;;6.65;4.13;;;11.80;99.90;;;;;;8295516;28;20120;-78
2023/07/22 04:35:21;;;;;;;6.03;3.60;;;11.80;99.90;;;;;;8309617;28;20031;-78
2023/07/22 04:39:22;;;;;;;5.40;3.92;;;11.70;99.90;;;;;;8316472;28;20076;-77
2023/07/22 04:43:22;;;;;;;8.50;4.10;;;11.80;99.90;;;;;;8296457;28;20029;-78
2023/07/22 04:47:23;;;;;;;5.15;3.70;;;11.90;99.90;;;;;;8296402;28;20030;-77
2023/07/22 04:51:23;;;;;;;5.57;4.20;;;11.70;99.90;;;;;;8295227;28;20022;-77
2023/07/22 04:55:24;;;;;;;6.88;3.97;;;12.00;99.90;;;;;;8293227;28;20025;-77
2023/07/22 04:59:24;;;;;;;6.25;3.45;;;12.80;99.90;;;;;;8294756;28;20032;-78
2023/07/22 05:03:26;;;;;;;7.57;3.78;;;13.30;99.90;;;;;;8311238;28;20037;-78
2023/07/22 05:07:26;;;;;;;6.15;3.30;;;13.90;99.90;;;;;;8299474;28;20026;-78
2023/07/22 05:11:27;;;;;;;5.05;3.10;;;14.50;99.90;;;;;;8292241;28;20052;-78
2023/07/22 05:15:27;;;;;;;8.75;3.05;;;15.10;99.90;;;;;;8300296;28;20030;-78
2023/07/22 05:19:28;;;;;;;7.00;2.95;;;15.90;99.90;;;;;;8300468;28;20415;-78
2023/07/22 05:23:29;;;;;;;5.20;3.28;;;17.00;99.90;;;;;;8293760;28;20065;-78
2023/07/22 05:27:29;;;;;;;7.82;2.90;;;17.60;99.90;;;;;;8293446;28;20036;-79
2023/07/22 05:31:30;;;;;;;6.15;2.92;;;18.50;99.90;;;;;;8298657;28;20669;-79
2023/07/22 05:35:30;;;;;;;5.00;2.50;;;18.70;99.90;;;;;;8298748;28;20053;-78
2023/07/22 05:39:31;;;;;;;5.10;3.20;;;18.40;99.90;;;;;;8293151;28;20504;-78
2023/07/22 05:43:31;;;;;;;3.33;2.40;;;18.70;99.90;;;;;;8293041;28;20041;-79
2023/07/22 05:47:32;;;;;;;5.07;2.60;;;19.20;99.90;;;;;;8293597;28;20026;-80
2023/07/22 05:51:33;;;;;;;6.28;2.95;;;19.60;99.90;;;;;;8294108;28;20727;-79
2023/07/22 05:55:33;;;;;;;5.95;2.63;;;20.00;99.90;;;;;;8292115;28;20389;-78
2023/07/22 05:59:35;;;;;;;4.07;2.65;;;21.00;99.90;;;;;;8308809;28;20049;-79
2023/07/22 06:03:36;;;;;;;5.65;2.50;;;21.20;99.90;;;;;;8297295;28;20492;-80
2023/07/22 06:07:37;;;;;;;5.03;3.25;;;21.30;99.90;;;;;;8293320;28;20037;-80
2023/07/22 06:11:37;;;;;;;24.45;5.15;;;22.30;99.90;;;;;;8294490;28;20076;-83
2023/07/22 06:15:38;;;;;;;5.50;2.75;;;22.10;99.90;;;;;;8313072;28;20586;-83
2023/07/22 06:19:38;;;;;;;5.70;2.95;;;22.10;99.90;;;;;;8301617;28;20030;-83
2023/07/22 06:23:39;;;;;;;4.95;2.92;;;22.70;99.90;;;;;;8302606;28;20462;-82
2023/07/22 06:27:39;;;;;;;4.35;2.85;;;23.50;99.90;;;;;;8311463;28;20076;-82
2023/07/22 06:31:40;;;;;;;6.40;3.17;;;23.90;99.90;;;;;;8308942;28;20034;-83
2023/07/22 06:35:40;;;;;;;5.97;2.92;;;23.90;99.90;;;;;;8304042;28;20480;-82
2023/07/22 06:39:41;;;;;;;4.45;2.78;;;24.10;99.90;;;;;;8325029;28;20022;-83
2023/07/22 06:43:41;;;;;;;5.10;2.60;;;24.40;99.90;;;;;;8318646;28;20037;-82
2023/07/22 06:47:42;;;;;;;3.92;2.60;;;24.00;99.90;;;;;;8300469;28;20022;-83
2023/07/22 06:51:42;;;;;;;5.65;2.83;;;23.70;99.90;;;;;;8295287;28;20124;-82
2023/07/22 06:55:51;;;;;;;2.80;2.13;;;24.50;99.90;;;;;;8293665;28;20669;-83
2023/07/22 06:59:53;;;;;;;2.58;2.10;;;24.90;99.90;;;;;;8301275;28;20018;-83
2023/07/22 07:03:54;;;;;;;3.72;2.13;;;25.40;99.90;;;;;;8296276;28;20125;-83
2023/07/22 07:07:55;;;;;;;3.67;2.17;;;25.30;99.90;;;;;;8299498;28;20045;-83
2023/07/22 07:11:58;;;;;;;2.45;1.75;;;25.50;99.90;;;;;;8297626;28;20030;-83
2023/07/22 07:16:19;;;;;;;3.35;1.70;;;25.40;99.90;;;;;;8293047;28;20553;-82
2023/07/22 07:20:20;;;;;;;;;;;25.50;99.90;;;;;;8298838;28;20383;-83
2023/07/22 07:24:20;;;;;;;;;;;25.70;99.90;;;;;;8297166;28;19910;-80
2023/07/22 07:28:21;;;;;;;3.47;1.93;;;24.70;99.90;;;;;;8305363;28;19936;-81
2023/07/22 07:32:23;;;;;;;2.30;1.60;;;24.90;99.90;;;;;;8303638;28;20022;-81
2023/07/22 07:36:24;;;;;;;2.38;1.60;;;24.90;99.90;;;;;;8297275;28;20673;-81
2023/07/22 07:40:26;;;;;;;1.80;1.48;;;25.10;99.90;;;;;;8304131;28;20028;-80
2023/07/22 07:44:26;;;;;;;3.28;1.45;;;25.20;99.90;;;;;;8297158;28;20528;-78
2023/07/22 07:48:27;;;;;;;2.35;1.30;;;24.90;98.90;;;;;;8312405;28;20026;-81
2023/07/22 07:52:27;;;;;;;3.35;1.52;;;24.20;99.90;;;;;;8297159;28;20433;-80
2023/07/22 07:56:29;;;;;;;2.42;1.60;;;23.90;99.90;;;;;;8297258;28;20088;-81
2023/07/22 08:00:29;;;;;;;3.03;1.55;;;24.30;99.90;;;;;;8297997;28;20105;-81
2023/07/22 08:04:30;;;;;;;2.10;1.52;;;24.80;99.40;;;;;;8298679;28;20077;-80
2023/07/22 08:08:31;;;;;;;2.83;1.67;;;25.00;99.10;;;;;;8303897;28;20029;-81
2023/07/22 08:12:31;;;;;;;2.47;1.20;;;25.10;99.90;;;;;;8310520;28;20034;-82
2023/07/22 08:16:32;;;;;;;2.97;1.23;;;25.40;97.40;;;;;;8302297;28;20068;-80
2023/07/22 08:20:32;;;;;;;1.30;1.20;;;25.20;98.50;;;;;;8304826;28;20030;-81
2023/07/22 08:24:33;;;;;;;1.92;1.25;;;25.20;94.10;;;;;;8304617;28;20124;-80
2023/07/22 08:28:34;;;;;;;1.80;1.20;;;25.10;95.00;;;;;;8310646;28;20033;-80
2023/07/22 08:32:34;;;;;;;1.75;1.40;;;25.10;98.20;;;;;;8308430;28;20034;-81
2023/07/22 08:36:36;;;;;;;3.63;1.23;;;25.80;96.90;;;;;;8304281;28;20072;-81
2023/07/22 08:40:37;;;;;;;1.65;1.30;;;25.20;95.90;;;;;;8302828;28;20072;-80
2023/07/22 08:44:43;;;;;;;2.50;1.05;;;25.30;96.40;;;;;;8302853;28;20033;-81
2023/07/22 08:48:46;;;;;;;1.90;1.40;;;25.50;94.00;;;;;;8302014;28;20101;-81
2023/07/22 08:52:48;;;;;;;1.33;1.13;;;25.80;95.10;;;;;;8295862;28;20022;-81
2023/07/22 08:56:50;;;;;;;2.08;1.27;;;25.70;93.10;;;;;;8297556;28;20058;-81
2023/07/22 09:00:51;;;;;;;2.17;1.30;;;26.30;92.90;;;;;;8299589;28;20037;-78
2023/07/22 09:04:51;;;;;;;3.75;1.23;;;25.80;94.10;;;;;;8303095;28;20032;-81
2023/07/22 09:08:53;;;;;;;2.17;1.13;;;25.80;94.60;;;;;;8294669;28;20029;-79
2023/07/22 09:12:55;;;;;;;2.92;1.40;;;25.50;96.50;;;;;;8300491;28;20049;-80
2023/07/22 09:16:55;;;;;;;2.17;1.55;;;25.60;93.60;;;;;;8294716;28;20026;-80
2023/07/22 09:20:56;;;;;;;4.28;1.40;;;25.90;95.80;;;;;;8292830;28;20132;-80
2023/07/22 09:25:14;;;;;;;4.95;1.70;;;26.50;98.00;;;;;;8299397;28;20021;-81
2023/07/22 09:29:15;;;;;;;1.60;1.45;;;27.40;95.30;;;;;;8318339;28;20029;-81
2023/07/22 09:33:22;;;;;;;1.98;1.10;;;27.90;92.70;;;;;;8302464;28;20037;-79
2023/07/22 09:37:24;;;;;;;2.33;1.27;;;26.20;90.20;;;;;;8330131;28;20060;-81
2023/07/22 09:41:29;;;;;;;2.15;1.30;;;24.90;94.90;;;;;;8296028;28;20168;-81
2023/07/22 09:45:31;;;;;;;2.13;1.33;;;24.40;93.50;;;;;;8311054;28;20026;-79
2023/07/22 09:49:32;;;;;;;2.28;1.50;;;24.20;97.20;;;;;;8294722;28;20025;-80
2023/07/22 09:53:32;;;;;;;1.80;1.50;;;25.30;98.00;;;;;;8293860;28;20026;-81
2023/07/22 09:57:35;;;;;;;2.28;1.80;;;26.00;91.10;;;;;;8293007;28;20057;-79
2023/07/22 10:01:38;;;;;;;3.85;1.48;;;26.50;96.40;;;;;;8294080;28;20548;-79
2023/07/22 10:05:41;;;;;;;22.10;4.43;;;26.30;90.10;;;;;;8293094;28;20558;-80
2023/07/22 10:09:42;;;;;;;1.85;1.33;;;25.90;93.10;;;;;;8313163;28;20050;-78
2023/07/22 10:13:42;;;;;;;3.53;1.40;;;26.00;92.00;;;;;;8304781;28;20032;-80
2023/07/22 10:17:44;;;;;;;3.20;1.70;;;26.70;92.30;;;;;;8298978;28;20749;-79
2023/07/22 10:21:45;;;;;;;2.92;1.48;;;26.10;91.60;;;;;;8299317;28;20021;-80
2023/07/22 10:25:47;;;;;;;6.43;2.03;;;25.70;94.10;;;;;;8299407;28;20014;-79
2023/07/22 10:29:48;;;;;;;2.78;1.65;;;25.90;93.80;;;;;;8305912;28;20037;-81
2023/07/22 10:33:49;;;;;;;2.30;1.35;;;26.30;93.60;;;;;;8298621;28;20021;-80
2023/07/22 10:37:52;;;;;;;2.28;1.42;;;27.10;94.60;;;;;;8295699;28;20099;-80
2023/07/22 10:42:04;;;;;;;1.35;1.25;;;26.30;90.80;;;;;;8293560;28;20026;-81
2023/07/22 10:46:12;;;;;;;3.17;1.48;;;25.70;90.40;;;;;;8295171;28;20565;-80
2023/07/22 10:50:13;;;;;;;5.10;1.70;;;25.30;91.40;;;;;;8292808;28;20353;-81
2023/07/22 10:54:30;;;;;;;2.55;1.60;;;26.10;94.30;;;;;;8302700;28;20031;-80
2023/07/22 10:58:50;;;;;;;3.05;1.90;;;27.00;96.50;;;;;;8287902;28;20073;-78
2023/07/22 11:03:12;;;;;;;2.25;1.50;;;27.80;89.20;;;;;;8296186;28;20038;-81
2023/07/22 11:07:12;;;;;;;3.22;1.40;;;25.70;93.10;;;;;;8288291;28;20037;-80
2023/07/22 11:11:13;;;;;;;1.95;1.40;;;24.70;94.80;;;;;;8298553;28;20030;-81
2023/07/22 11:15:17;;;;;;;2.15;1.30;;;25.70;90.50;;;;;;8299474;28;20025;-81
2023/07/22 11:19:20;;;;;;;2.33;1.60;;;26.80;91.70;;;;;;8298191;28;20044;-80
2023/07/22 11:23:21;;;;;;;2.72;1.60;;;27.00;93.10;;;;;;8290403;28;20026;-81
2023/07/22 11:27:22;;;;;;;1.83;1.52;;;27.50;92.00;;;;;;8305206;28;20053;-81
2023/07/22 11:31:22;;;;;;;4.28;1.63;;;29.10;89.70;;;;;;8297280;28;20088;-81
2023/07/22 11:35:23;;;;;;;2.08;1.70;;;30.30;88.90;;;;;;8300811;28;20022;-82
2023/07/22 11:39:27;;;;;;;3.67;1.70;;;30.10;79.40;;;;;;8296693;28;20037;-80
2023/07/22 11:43:28;;;;;;;2.70;1.50;;;29.50;80.90;;;;;;8294897;28;20029;-80
2023/07/22 11:47:32;;;;;;;2.35;1.48;;;28.60;82.50;;;;;;8296623;28;20484;-81
2023/07/22 11:51:33;;;;;;;1.70;1.40;;;28.40;78.40;;;;;;8295686;28;20052;-81
2023/07/22 11:55:36;;;;;;;2.25;1.50;;;29.60;79.70;;;;;;8297137;28;20026;-80
2023/07/22 11:59:38;;;;;;;4.50;1.58;;;30.00;75.50;;;;;;8297871;28;20591;-81
2023/07/22 12:03:39;;;;;;;1.90;1.50;;;28.30;82.40;;;;;;8298713;28;20172;-81
2023/07/22 12:07:41;;;;;;;1.67;1.58;;;29.90;73.90;;;;;;8302290;28;20025;-80
2023/07/22 12:11:41;;;;;;;2.30;1.40;;;31.00;72.20;;;;;;8298456;28;20044;-81
2023/07/22 12:15:42;;;;;;;3.75;1.70;;;30.30;71.80;;;;;;8297313;28;20520;-79
2023/07/22 12:19:53;;;;;;;2.97;1.70;;;28.30;72.90;;;;;;8304995;28;20049;-82
2023/07/22 12:23:54;;;;;;;2.55;1.52;;;27.30;80.50;;;;;;8325243;28;20083;-78
2023/07/22 12:27:54;;;;;;;1.95;1.75;;;28.90;75.90;;;;;;8296632;28;20033;-81
2023/07/22 12:31:55;;;;;;;2.30;1.58;;;28.30;79.50;;;;;;8298091;28;20104;-82
2023/07/22 12:35:57;;;;;;;1.83;1.63;;;30.30;81.80;;;;;;8303118;28;20442;-80
2023/07/22 12:39:57;;;;;;;3.72;1.95;;;32.10;71.90;;;;;;8314579;28;20022;-82
2023/07/22 12:43:58;;;;;;;4.30;1.85;;;32.40;63.60;;;;;;8298352;28;20029;-82
2023/07/22 12:47:58;;;;;;;2.20;2.00;;;31.90;68.30;;;;;;8294310;28;20040;-81
2023/07/22 12:52:03;;;;;;;2.20;1.90;;;33.40;59.90;;;;;;8300548;28;20045;-82
2023/07/22 12:56:05;;;;;;;3.90;2.05;;;31.90;62.80;;;;;;8297022;28;20033;-82
2023/07/22 13:00:09;;;;;;;2.67;2.17;;;30.10;69.70;;;;;;8299177;28;20022;-82
2023/07/22 13:04:09;;;;;;;2.22;2.00;;;29.00;74.00;;;;;;8314440;28;20029;-81
2023/07/22 13:08:10;;;;;;;3.28;2.03;;;30.30;70.50;;;;;;8307170;28;20076;-81
2023/07/22 13:12:11;;;;;;;3.50;2.30;;;31.50;67.00;;;;;;8308379;28;20029;-81
2023/07/22 13:16:11;;;;;;;3.28;2.30;;;30.80;64.30;;;;;;8301667;28;20624;-80
2023/07/22 13:20:12;;;;;;;3.35;1.90;;;30.10;73.30;;;;;;8297444;28;20029;-81
2023/07/22 13:24:12;;;;;;;4.22;2.22;;;31.80;68.40;;;;;;8295029;28;20448;-82
2023/07/22 13:28:13;;;;;;;3.13;2.25;;;32.40;64.50;;;;;;8293785;28;20040;-82
2023/07/22 13:32:13;;;;;;;3.78;2.38;;;34.00;71.10;;;;;;8293763;28;20068;-82
2023/07/22 13:36:14;;;;;;;3.67;2.10;;;34.70;57.10;;;;;;8295339;28;20033;-82
2023/07/22 13:40:14;;;;;;;2.53;2.00;;;32.70;59.70;;;;;;8297546;28;20029;-80
2023/07/22 13:44:15;;;;;;;4.22;2.22;;;29.50;66.90;;;;;;8290520;28;20440;-81
2023/07/22 13:48:16;;;;;;;3.63;2.47;;;28.70;67.30;;;;;;8293232;28;20033;-82
2023/07/22 13:52:16;;;;;;;3.08;2.05;;;31.30;65.40;;;;;;8287084;28;20040;-82
2023/07/22 13:56:17;;;;;;;2.53;2.03;;;33.10;61.50;;;;;;8290052;28;20034;-81
2023/07/22 14:00:18;;;;;;;3.10;1.95;;;34.30;56.60;;;;;;8303003;28;20080;-80
2023/07/22 14:04:18;;;;;;;2.70;2.15;;;32.50;60.70;;;;;;8293562;28;20034;-81
2023/07/22 14:08:19;;;;;;;4.55;2.03;;;34.20;58.20;;;;;;8300130;28;20073;-81
2023/07/22 14:12:19;;;;;;;3.38;2.20;;;35.30;57.20;;;;;;8291579;28;20029;-79
2023/07/22 14:16:20;;;;;;;3.95;2.05;;;35.00;50.90;;;;;;8291717;28;20061;-81
2023/07/22 14:20:20;;;;;;;3.15;2.00;;;35.10;52.70;;;;;;8288613;28;20038;-82
2023/07/22 14:24:21;;;;;;;29.48;26.88;;;36.70;50.80;;;;;;8292688;28;20033;-82
2023/07/22 14:28:21;;;;;;;3.90;1.90;;;38.30;46.80;;;;;;8308769;28;20075;-81
2023/07/22 14:32:22;;;;;;;3.25;2.10;;;37.50;47.70;;;;;;8299937;28;20410;-81
2023/07/22 14:36:24;;;;;;;2.70;2.00;;;36.40;49.20;;;;;;8287381;28;20037;-82
2023/07/22 14:40:26;;;;;;;2.83;2.10;;;36.00;49.10;;;;;;8304175;28;20148;-81
2023/07/22 14:44:26;;;;;;;3.75;2.25;;;36.70;47.80;;;;;;8298637;28;20096;-81
2023/07/22 14:48:27;;;;;;;2.95;2.50;;;36.60;46.90;;;;;;8290433;28;20486;-81
2023/07/22 14:52:27;;;;;;;4.10;2.40;;;34.10;51.80;;;;;;8289858;28;20034;-82
2023/07/22 14:56:28;;;;;;;2.92;2.10;;;34.30;49.70;;;;;;8287826;28;20038;-79
2023/07/22 15:00:28;;;;;;;3.08;2.15;;;33.90;51.30;;;;;;8297181;28;20036;-82
2023/07/22 15:04:29;;;;;;;7.53;2.40;;;34.10;51.20;;;;;;8297803;28;20072;-81
2023/07/22 15:08:29;;;;;;;4.75;2.50;;;33.60;52.20;;;;;;8319600;28;20030;-81
2023/07/22 15:12:30;;;;;;;2.63;2.22;;;34.20;51.30;;;;;;8297950;28;20052;-81
2023/07/22 15:16:31;;;;;;;3.30;2.20;;;33.80;52.00;;;;;;8297417;28;20026;-80
2023/07/22 15:20:31;;;;;;;3.15;2.22;;;34.00;50.20;;;;;;8297291;28;20049;-81
2023/07/22 15:24:32;;;;;;;2.95;2.40;;;34.60;48.50;;;;;;8298577;28;20034;-82
2023/07/22 15:28:32;;;;;;;4.05;2.30;;;33.60;51.10;;;;;;8302342;28;20029;-80
2023/07/22 15:32:33;;;;;;;4.78;2.45;;;33.20;53.30;;;;;;8301022;28;20037;-80
2023/07/22 15:36:33;;;;;;;3.63;2.63;;;33.40;54.70;;;;;;8309686;28;20030;-81
2023/07/22 15:40:37;;;;;;;3.70;2.30;;;33.80;51.10;;;;;;8297087;28;20055;-82
2023/07/22 15:44:37;;;;;;;5.97;2.20;;;32.10;54.70;;;;;;8297544;28;20105;-82
2023/07/22 15:48:38;;;;;;;2.85;2.20;;;31.30;54.50;;;;;;8297161;28;20603;-81
2023/07/22 15:52:38;;;;;;;3.35;2.22;;;29.20;56.30;;;;;;8308023;28;20396;-79
2023/07/22 15:56:39;;;;;;;3.10;2.30;;;28.00;59.00;;;;;;8295157;28;20577;-79
2023/07/22 16:00:40;;;;;;;3.88;2.78;;;27.40;59.70;;;;;;8300898;28;20033;-80
2023/07/22 16:04:41;;;;;;;5.25;2.75;;;27.00;60.60;;;;;;8300624;28;20453;-79
2023/07/22 16:08:41;;;;;;;4.30;2.70;;;26.70;64.60;;;;;;8286205;28;20038;-80
2023/07/22 16:12:42;;;;;;;5.75;2.92;;;26.50;61.30;;;;;;8288911;28;20026;-80
2023/07/22 16:16:42;;;;;;;5.57;3.10;;;26.70;62.10;;;;;;8290274;28;20559;-81
2023/07/22 16:20:43;;;;;;;3.35;2.72;;;26.80;61.50;;;;;;8294980;28;20030;-80
2023/07/22 16:24:43;;;;;;;6.90;3.17;;;26.80;58.80;;;;;;8291278;28;20030;-81
2023/07/22 16:28:44;;;;;;;16.38;6.70;;;26.70;57.80;;;;;;8284340;28;20072;-81
2023/07/22 16:32:44;;;;;;;8.18;3.35;;;26.30;58.10;;;;;;8288148;28;20031;-80
2023/07/22 16:36:45;;;;;;;20.45;3.92;;;25.90;59.40;;;;;;8288279;28;20042;-80
2023/07/22 16:40:46;;;;;;;5.97;3.20;;;25.90;61.60;;;;;;8288184;28;20032;-81
2023/07/22 16:44:46;;;;;;;7.43;3.00;;;26.00;62.60;;;;;;8294859;28;20018;-81
2023/07/22 16:48:47;;;;;;;5.45;3.05;;;26.10;63.50;;;;;;8292368;28;20523;-82
2023/07/22 16:52:47;;;;;;;5.13;2.83;;;26.40;61.80;;;;;;8288992;28;20046;-82
2023/07/22 16:56:48;;;;;;;16.77;2.70;;;26.20;62.90;;;;;;8283815;28;20020;-81
2023/07/22 17:00:48;;;;;;;6.57;3.92;;;26.50;64.70;;;;;;8304229;28;20030;-82
2023/07/22 17:04:49;;;;;;;5.00;3.25;;;26.30;64.40;;;;;;8293478;28;20037;-79
2023/07/22 17:08:49;;;;;;;9.05;3.08;;;26.10;61.20;;;;;;8294670;28;20192;-80
2023/07/22 17:12:50;;;;;;;8.88;3.25;;;25.80;61.30;;;;;;8293721;28;20041;-80
2023/07/22 17:16:50;;;;;;;6.13;2.70;;;25.40;61.40;;;;;;8294758;28;20056;-81
2023/07/22 17:20:51;;;;;;;7.88;2.78;;;25.10;64.60;;;;;;8290444;28;20025;-80
2023/07/22 17:24:51;;;;;;;6.95;3.22;;;24.70;64.90;;;;;;8293107;28;20022;-80
2023/07/22 17:28:52;;;;;;;11.10;3.78;;;24.30;70.00;;;;;;8292517;28;20030;-80
2023/07/22 17:32:52;;;;;;;5.95;2.97;;;24.10;68.60;;;;;;8298138;28;20148;-80
2023/07/22 17:36:53;;;;;;;6.57;3.17;;;23.80;72.30;;;;;;8292936;28;20018;-80
2023/07/22 17:40:54;;;;;;;7.85;2.83;;;23.50;72.30;;;;;;8292971;28;20084;-81
2023/07/22 17:44:55;;;;;;;7.65;3.05;;;23.30;73.10;;;;;;8293612;28;20488;-79
2023/07/22 17:48:55;;;;;;;5.65;3.13;;;23.20;73.50;;;;;;8292051;28;20064;-79
2023/07/22 17:52:56;;;;;;;4.60;3.05;;;22.80;78.20;;;;;;8292405;28;20025;-80
2023/07/22 17:56:56;;;;;;;4.82;2.60;;;22.70;77.40;;;;;;8292979;28;20026;-79
2023/07/22 18:00:59;;;;;;;4.78;2.65;;;22.70;77.70;;;;;;8291288;28;20114;-79
2023/07/22 18:05:00;;;;;;;15.32;3.05;;;22.70;77.50;;;;;;8291369;28;20045;-79
2023/07/22 18:09:00;;;;;;;8.20;2.60;;;22.40;78.20;;;;;;8291398;28;20029;-79
2023/07/22 18:13:01;;;;;;;13.07;3.20;;;22.20;78.80;;;;;;8292988;28;20145;-79
2023/07/22 18:17:02;;;;;;;4.93;2.45;;;22.00;81.70;;;;;;8296917;28;20381;-79
2023/07/22 18:21:02;;;;;;;3.75;2.42;;;22.00;81.00;;;;;;8297390;28;20500;-79
2023/07/22 18:25:04;;;;;;;6.88;2.55;;;21.70;82.70;;;;;;8291515;28;20022;-79
2023/07/22 18:29:04;;;;;;;6.85;2.78;;;21.70;83.10;;;;;;8291266;28;20033;-79
2023/07/22 18:33:05;;;;;;;5.20;3.30;;;21.30;86.10;;;;;;8300916;28;20075;-79
2023/07/22 18:37:05;;;;;;;6.93;3.05;;;21.10;88.80;;;;;;8299477;28;20096;-79
2023/07/22 18:41:06;;;;;;;7.82;3.10;;;20.90;90.40;;;;;;8317523;28;20057;-80
2023/07/22 18:45:07;;;;;;;9.13;3.20;;;20.60;91.00;;;;;;8299206;28;20033;-79
2023/07/22 18:49:07;;;;;;;12.25;3.78;;;20.40;93.00;;;;;;8298503;28;20026;-82
2023/07/22 18:53:08;;;;;;;10.88;2.80;;;20.20;93.60;;;;;;8298179;28;20044;-77
2023/07/22 18:57:09;;;;;;;9.90;3.03;;;19.90;95.10;;;;;;8297599;28;20030;-79
2023/07/22 19:01:09;;;;;;;3.58;2.42;;;19.60;95.00;;;;;;8297649;28;20030;-79
2023/07/22 19:05:10;;;;;;;5.15;3.30;;;19.30;95.80;;;;;;8296813;28;20084;-79
2023/07/22 19:09:10;;;;;;;6.22;3.70;;;19.00;98.10;;;;;;8296955;28;20029;-79
2023/07/22 19:13:11;;;;;;;6.57;3.95;;;18.80;99.80;;;;;;8302673;28;20125;-78
2023/07/22 19:17:12;;;;;;;13.55;6.90;;;18.60;99.90;;;;;;8296576;28;20030;-79
2023/07/22 19:21:12;;;;;;;9.65;6.20;;;18.40;99.90;;;;;;8296705;28;20141;-79
2023/07/22 19:25:13;;;;;;;14.32;9.05;;;18.30;99.90;;;;;;8296417;28;20028;-79
2023/07/22 19:29:13;;;;;;;16.98;8.80;;;18.10;99.90;;;;;;8296358;28;20038;-79
2023/07/22 19:33:14;;;;;;;17.10;11.52;;;18.10;99.90;;;;;;8312669;28;20503;-79
2023/07/22 19:37:14;;;;;;;10.27;5.57;;;18.00;99.90;;;;;;8297820;28;20116;-81
2023/07/22 19:41:15;;;;;;;9.00;5.28;;;17.80;99.90;;;;;;8304407;28;20419;-81
2023/07/22 19:45:16;;;;;;;9.27;5.38;;;17.50;99.90;;;;;;8305809;28;20022;-81
2023/07/22 19:49:16;;;;;;;9.98;5.47;;;17.30;99.90;;;;;;8316047;28;20399;-81
2023/07/22 19:53:17;;;;;;;9.20;5.68;;;17.50;99.90;;;;;;8300252;28;20527;-81
2023/07/22 19:57:18;;;;;;;14.88;6.90;;;17.40;99.90;;;;;;8298049;28;20032;-81
2023/07/22 20:01:19;;;;;;;10.57;5.20;;;17.20;99.90;;;;;;8314557;28;20030;-80
2023/07/22 20:05:19;;;;;;;11.77;4.38;;;16.90;99.90;;;;;;8309443;28;20033;-80
2023/07/22 20:09:20;;;;;;;8.75;4.75;;;16.70;99.90;;;;;;8323018;28;20029;-80
2023/07/22 20:13:21;;;;;;;9.82;5.38;;;16.80;99.90;;;;;;8303622;28;20511;-80
2023/07/22 20:17:22;;;;;;;9.65;6.35;;;16.80;99.90;;;;;;8302726;28;20021;-80
2023/07/22 20:21:22;;;;;;;10.05;5.32;;;16.50;99.90;;;;;;8302525;28;20061;-79
2023/07/22 20:25:24;;;;;;;7.45;5.50;;;16.20;99.90;;;;;;8296254;28;20022;-81
2023/07/22 20:29:25;;;;;;;9.48;5.20;;;16.10;99.90;;;;;;8300160;28;20029;-79
2023/07/22 20:33:25;;;;;;;6.85;4.45;;;16.00;99.90;;;;;;8295984;28;20040;-80
2023/07/22 20:37:28;;;;;;;6.53;4.20;;;15.90;99.90;;;;;;8290213;28;20181;-81
2023/07/22 20:41:28;;;;;;;7.10;4.35;;;15.80;99.90;;;;;;8306073;28;20071;-79
2023/07/22 20:45:29;;;;;;;8.77;5.20;;;15.60;99.90;;;;;;8301152;28;20026;-80
2023/07/22 20:49:29;;;;;;;8.57;4.82;;;15.50;99.90;;;;;;8294963;28;20052;-78
2023/07/22 20:53:30;;;;;;;8.52;4.55;;;15.50;99.90;;;;;;8296189;28;20041;-80